sensor_id;sensor_type;location;lat;lon;timestamp;temperature;humidity
46608;DHT22;32330;51.936;7.184;2023-09-08T03:49:17;18.00;99.90
46608;DHT22;32330;51.936;7.184;2023-09-08T03:51:46;18.00;99.90
46608;DHT22;32330;51.936;7.184;2023-09-08T03:54:12;18.00;99.90
46608;DHT22;32330;51.936;7.184;2023-09-08T03:56:39;18.00;99.90
46608;DHT22;32330;51.936;7.184;2023-09-08T03:59:06;17.90;99.90
46608;DHT22;32330;51.936;7.184;2023-09-08T04:04:15;17.90;99.90
46608;DHT22;32330;51.936;7.184;2023-09-08T04:06:45;17.90;99.90
46608;DHT22;32330;51.936;7.184;2023-09-08T04:09:12;17.90;99.90
46608;DHT22;32330;51.936;7.184;2023-09-08T04:11:39;17.90;99.90
46608;DHT22;32330;51.936;7.184;2023-09-08T04:14:06;17.90;99.90
46608;DHT22;32330;51.936;7.184;2023-09-08T04:16:33;17.90;99.90
46608;DHT22;32330;51.936;7.184;2023-09-08T04:19:00;17.90;99.90
46608;DHT22;32330;51.936;7.184;2023-09-08T04:21:27;17.90;99.90
46608;DHT22;32330;51.936;7.184;2023-09-08T04:23:55;17.80;99.90
46608;DHT22;32330;51.936;7.184;2023-09-08T04:26:22;17.80;99.90
46608;DHT22;32330;51.936;7.184;2023-09-08T04:28:49;17.80;99.90
46608;DHT22;32330;51.936;7.184;2023-09-08T04:31:17;17.70;99.90
46608;DHT22;32330;51.936;7.184;2023-09-08T04:33:45;17.70;99.90
46608;DHT22;32330;51.936;7.184;2023-09-08T04:36:12;17.70;99.90
46608;DHT22;32330;51.936;7.184;2023-09-08T04:38:39;17.60;99.90
46608;DHT22;32330;51.936;7.184;2023-09-08T04:41:10;17.60;99.90
46608;DHT22;32330;51.936;7.184;2023-09-08T04:43:37;17.70;99.90
46608;DHT22;32330;51.936;7.184;2023-09-08T04:46:04;17.70;99.90
46608;DHT22;32330;51.936;7.184;2023-09-08T04:48:31;17.70;99.90
46608;DHT22;32330;51.936;7.184;2023-09-08T04:50:58;17.70;99.90
46608;DHT22;32330;51.936;7.184;2023-09-08T04:53:27;17.70;99.90
46608;DHT22;32330;51.936;7.184;2023-09-08T04:55:54;17.60;99.90
46608;DHT22;32330;51.936;7.184;2023-09-08T04:58:23;17.70;99.90
46608;DHT22;32330;51.936;7.184;2023-09-08T05:00:50;17.70;99.90
46608;DHT22;32330;51.936;7.184;2023-09-08T05:03:17;17.70;99.90
46608;DHT22;32330;51.936;7.184;2023-09-08T05:05:46;17.70;99.90
46608;DHT22;32330;51.936;7.184;2023-09-08T05:08:14;17.70;99.90
46608;DHT22;32330;51.936;7.184;2023-09-08T05:10:43;17.60;99.90
46608;DHT22;32330;51.936;7.184;2023-09-08T05:13:10;17.60;99.90
46608;DHT22;32330;51.936;7.184;2023-09-08T05:15:39;17.60;99.90
46608;DHT22;32330;51.936;7.184;2023-09-08T05:18:08;17.60;99.90
46608;DHT22;32330;51.936;7.184;2023-09-08T05:20:35;17.60;99.90
46608;DHT22;32330;51.936;7.184;2023-09-08T05:23:02;17.60;99.90
46608;DHT22;32330;51.936;7.184;2023-09-08T05:25:29;17.60;99.90
46608;DHT22;32330;51.936;7.184;2023-09-08T05:27:56;17.70;99.90
46608;DHT22;32330;51.936;7.184;2023-09-08T05:30:23;17.60;99.90
46608;DHT22;32330;51.936;7.184;2023-09-08T05:32:52;17.60;99.90
46608;DHT22;32330;51.936;7.184;2023-09-08T05:35:19;17.60;99.90
46608;DHT22;32330;51.936;7.184;2023-09-08T05:37:48;17.60;99.90
46608;DHT22;32330;51.936;7.184;2023-09-08T05:40:16;17.70;99.90
46608;DHT22;32330;51.936;7.184;2023-09-08T05:42:45;17.70;99.90
46608;DHT22;32330;51.936;7.184;2023-09-08T05:45:12;17.80;99.90
46608;DHT22;32330;51.936;7.184;2023-09-08T05:47:39;17.80;99.90
46608;DHT22;32330;51.936;7.184;2023-09-08T05:50:08;17.80;99.90
46608;DHT22;32330;51.936;7.184;2023-09-08T05:52:35;17.90;99.90
46608;DHT22;32330;51.936;7.184;2023-09-08T05:55:04;17.90;99.90
46608;DHT22;32330;51.936;7.184;2023-09-08T05:57:31;17.90;99.90
46608;DHT22;32330;51.936;7.184;2023-09-08T06:00:00;18.00;99.90
46608;DHT22;32330;51.936;7.184;2023-09-08T06:02:28;18.10;99.90
46608;DHT22;32330;51.936;7.184;2023-09-08T06:04:55;18.10;99.90
46608;DHT22;32330;51.936;7.184;2023-09-08T06:07:24;18.20;99.90
46608;DHT22;32330;51.936;7.184;2023-09-08T06:09:51;18.20;99.90
46608;DHT22;32330;51.936;7.184;2023-09-08T06:12:18;18.30;99.90
46608;DHT22;32330;51.936;7.184;2023-09-08T06:14:44;18.50;99.90
46608;DHT22;32330;51.936;7.184;2023-09-08T06:17:12;18.60;99.90
46608;DHT22;32330;51.936;7.184;2023-09-08T06:19:39;18.70;99.90
46608;DHT22;32330;51.936;7.184;2023-09-08T06:22:06;18.90;99.90
46608;DHT22;32330;51.936;7.184;2023-09-08T06:24:35;19.00;99.90
46608;DHT22;32330;51.936;7.184;2023-09-08T06:27:02;19.10;99.90
46608;DHT22;32330;51.936;7.184;2023-09-08T06:29:29;19.20;99.90
46608;DHT22;32330;51.936;7.184;2023-09-08T06:31:56;19.40;99.90
46608;DHT22;32330;51.936;7.184;2023-09-08T06:34:24;19.50;99.90
46608;DHT22;32330;51.936;7.184;2023-09-08T06:36:51;19.60;99.90
46608;DHT22;32330;51.936;7.184;2023-09-08T06:39:18;19.80;99.90
46608;DHT22;32330;51.936;7.184;2023-09-08T06:41:47;19.90;99.90
46608;DHT22;32330;51.936;7.184;2023-09-08T06:44:16;20.00;99.90
46608;DHT22;32330;51.936;7.184;2023-09-08T06:46:44;20.20;99.90
46608;DHT22;32330;51.936;7.184;2023-09-08T06:49:11;20.30;99.90
46608;DHT22;32330;51.936;7.184;2023-09-08T06:51:38;20.40;99.90
46608;DHT22;32330;51.936;7.184;2023-09-08T06:54:05;20.50;99.90
46608;DHT22;32330;51.936;7.184;2023-09-08T06:56:37;20.60;99.90
46608;DHT22;32330;51.936;7.184;2023-09-08T06:59:07;20.70;99.90
46608;DHT22;32330;51.936;7.184;2023-09-08T07:01:35;20.90;99.90
46608;DHT22;32330;51.936;7.184;2023-09-08T07:04:02;21.00;99.90
46608;DHT22;32330;51.936;7.184;2023-09-08T07:06:29;21.20;99.90
46608;DHT22;32330;51.936;7.184;2023-09-08T07:08:57;21.30;99.90
46608;DHT22;32330;51.936;7.184;2023-09-08T07:11:25;21.40;99.90
46608;DHT22;32330;51.936;7.184;2023-09-08T07:13:52;21.50;99.90
46608;DHT22;32330;51.936;7.184;2023-09-08T07:16:20;21.60;99.90
46608;DHT22;32330;51.936;7.184;2023-09-08T07:18:49;21.80;99.90
46608;DHT22;32330;51.936;7.184;2023-09-08T07:21:16;21.90;99.90
46608;DHT22;32330;51.936;7.184;2023-09-08T07:23:43;22.00;99.90
46608;DHT22;32330;51.936;7.184;2023-09-08T07:26:12;22.20;99.90
46608;DHT22;32330;51.936;7.184;2023-09-08T07:28:40;22.30;99.90
46608;DHT22;32330;51.936;7.184;2023-09-08T07:31:11;22.40;99.90
46608;DHT22;32330;51.936;7.184;2023-09-08T07:33:43;22.50;99.90
46608;DHT22;32330;51.936;7.184;2023-09-08T07:36:10;22.60;99.90
46608;DHT22;32330;51.936;7.184;2023-09-08T07:38:40;22.70;99.90
46608;DHT22;32330;51.936;7.184;2023-09-08T07:41:07;23.00;99.90
46608;DHT22;32330;51.936;7.184;2023-09-08T07:43:35;23.00;99.90
46608;DHT22;32330;51.936;7.184;2023-09-08T07:46:07;23.20;99.90
46608;DHT22;32330;51.936;7.184;2023-09-08T07:48:34;23.30;99.90
46608;DHT22;32330;51.936;7.184;2023-09-08T07:51:02;23.50;99.90
46608;DHT22;32330;51.936;7.184;2023-09-08T07:53:29;23.60;99.90
46608;DHT22;32330;51.936;7.184;2023-09-08T07:55:56;23.60;99.90
46608;DHT22;32330;51.936;7.184;2023-09-08T07:58:23;23.80;99.90
46608;DHT22;32330;51.936;7.184;2023-09-08T08:00:50;23.80;99.90
46608;DHT22;32330;51.936;7.184;2023-09-08T08:03:17;24.00;99.90
46608;DHT22;32330;51.936;7.184;2023-09-08T08:05:44;24.20;99.90
46608;DHT22;32330;51.936;7.184;2023-09-08T08:08:12;24.30;99.90
46608;DHT22;32330;51.936;7.184;2023-09-08T08:10:40;24.40;99.90
46608;DHT22;32330;51.936;7.184;2023-09-08T08:13:07;24.40;99.90
46608;DHT22;32330;51.936;7.184;2023-09-08T08:15:35;24.50;99.80
46608;DHT22;32330;51.936;7.184;2023-09-08T08:18:03;24.60;99.90
46608;DHT22;32330;51.936;7.184;2023-09-08T08:20:31;24.80;99.40
46608;DHT22;32330;51.936;7.184;2023-09-08T08:23:00;24.80;99.20
46608;DHT22;32330;51.936;7.184;2023-09-08T08:25:29;25.00;99.10
46608;DHT22;32330;51.936;7.184;2023-09-08T08:27:56;25.10;99.20
46608;DHT22;32330;51.936;7.184;2023-09-08T08:30:24;25.20;99.60
46608;DHT22;32330;51.936;7.184;2023-09-08T08:32:51;25.40;99.40
46608;DHT22;32330;51.936;7.184;2023-09-08T08:35:19;25.60;98.90
46608;DHT22;32330;51.936;7.184;2023-09-08T08:37:46;25.60;98.60
46608;DHT22;32330;51.936;7.184;2023-09-08T08:40:13;25.50;97.90
46608;DHT22;32330;51.936;7.184;2023-09-08T08:42:41;25.80;98.30
46608;DHT22;32330;51.936;7.184;2023-09-08T08:45:10;26.00;98.00
46608;DHT22;32330;51.936;7.184;2023-09-08T08:47:37;26.10;97.10
46608;DHT22;32330;51.936;7.184;2023-09-08T08:50:05;26.30;97.40
46608;DHT22;32330;51.936;7.184;2023-09-08T08:52:37;26.30;96.70
46608;DHT22;32330;51.936;7.184;2023-09-08T08:55:05;26.50;96.90
46608;DHT22;32330;51.936;7.184;2023-09-08T08:57:32;26.70;96.30
46608;DHT22;32330;51.936;7.184;2023-09-08T09:00:01;26.80;96.10
46608;DHT22;32330;51.936;7.184;2023-09-08T09:02:30;26.90;95.00
46608;DHT22;32330;51.936;7.184;2023-09-08T09:04:57;27.10;95.10
46608;DHT22;32330;51.936;7.184;2023-09-08T09:07:25;27.20;94.70
46608;DHT22;32330;51.936;7.184;2023-09-08T09:09:53;27.30;94.50
46608;DHT22;32330;51.936;7.184;2023-09-08T09:12:21;27.40;95.20
46608;DHT22;32330;51.936;7.184;2023-09-08T09:14:52;27.50;94.40
46608;DHT22;32330;51.936;7.184;2023-09-08T09:17:21;27.70;93.70
46608;DHT22;32330;51.936;7.184;2023-09-08T09:19:48;27.70;93.80
46608;DHT22;32330;51.936;7.184;2023-09-08T09:22:19;27.80;94.20
46608;DHT22;32330;51.936;7.184;2023-09-08T09:24:48;28.10;94.40
46608;DHT22;32330;51.936;7.184;2023-09-08T09:27:15;28.20;93.40
46608;DHT22;32330;51.936;7.184;2023-09-08T09:29:46;28.20;93.30
46608;DHT22;32330;51.936;7.184;2023-09-08T09:32:14;28.20;93.10
46608;DHT22;32330;51.936;7.184;2023-09-08T09:34:49;28.40;93.30
46608;DHT22;32330;51.936;7.184;2023-09-08T09:37:17;28.60;93.10
46608;DHT22;32330;51.936;7.184;2023-09-08T09:39:48;28.70;92.90
46608;DHT22;32330;51.936;7.184;2023-09-08T09:42:16;28.80;92.40
46608;DHT22;32330;51.936;7.184;2023-09-08T09:44:43;29.00;92.90
46608;DHT22;32330;51.936;7.184;2023-09-08T09:47:10;29.10;92.10
46608;DHT22;32330;51.936;7.184;2023-09-08T09:49:42;29.40;93.10
46608;DHT22;32330;51.936;7.184;2023-09-08T09:52:11;29.20;91.30
46608;DHT22;32330;51.936;7.184;2023-09-08T09:54:40;29.50;92.30
46608;DHT22;32330;51.936;7.184;2023-09-08T09:57:09;29.50;91.20
46608;DHT22;32330;51.936;7.184;2023-09-08T09:59:36;29.60;91.30
46608;DHT22;32330;51.936;7.184;2023-09-08T10:02:03;29.60;92.10
46608;DHT22;32330;51.936;7.184;2023-09-08T10:04:31;29.80;90.80
46608;DHT22;32330;51.936;7.184;2023-09-08T10:06:59;30.00;91.50
46608;DHT22;32330;51.936;7.184;2023-09-08T10:09:27;30.00;90.70
46608;DHT22;32330;51.936;7.184;2023-09-08T10:11:57;30.10;90.50
46608;DHT22;32330;51.936;7.184;2023-09-08T10:14:27;30.30;90.80
46608;DHT22;32330;51.936;7.184;2023-09-08T10:16:59;30.60;90.80
46608;DHT22;32330;51.936;7.184;2023-09-08T10:19:27;30.40;88.70
46608;DHT22;32330;51.936;7.184;2023-09-08T10:21:58;30.40;88.70
46608;DHT22;32330;51.936;7.184;2023-09-08T10:24:31;30.60;88.80
46608;DHT22;32330;51.936;7.184;2023-09-08T10:27:04;30.60;88.20
46608;DHT22;32330;51.936;7.184;2023-09-08T10:29:34;30.70;87.10
46608;DHT22;32330;51.936;7.184;2023-09-08T10:32:03;30.90;85.80
46608;DHT22;32330;51.936;7.184;2023-09-08T10:34:31;30.90;87.80
46608;DHT22;32330;51.936;7.184;2023-09-08T10:36:59;30.90;87.10
46608;DHT22;32330;51.936;7.184;2023-09-08T10:39:32;31.00;87.30
46608;DHT22;32330;51.936;7.184;2023-09-08T10:42:28;31.20;87.30
46608;DHT22;32330;51.936;7.184;2023-09-08T10:44:59;31.30;87.70
46608;DHT22;32330;51.936;7.184;2023-09-08T10:47:39;31.40;86.60
46608;DHT22;32330;51.936;7.184;2023-09-08T10:50:15;31.20;84.50
46608;DHT22;32330;51.936;7.184;2023-09-08T10:52:42;31.10;84.70
46608;DHT22;32330;51.936;7.184;2023-09-08T10:55:11;31.40;85.00
46608;DHT22;32330;51.936;7.184;2023-09-08T10:57:44;31.50;84.10
46608;DHT22;32330;51.936;7.184;2023-09-08T11:00:18;31.60;84.20
46608;DHT22;32330;51.936;7.184;2023-09-08T11:02:48;31.60;83.90
46608;DHT22;32330;51.936;7.184;2023-09-08T11:05:16;31.70;83.10
46608;DHT22;32330;51.936;7.184;2023-09-08T11:07:47;32.00;84.20
46608;DHT22;32330;51.936;7.184;2023-09-08T11:10:16;31.90;84.10
46608;DHT22;32330;51.936;7.184;2023-09-08T11:12:43;31.70;82.00
46608;DHT22;32330;51.936;7.184;2023-09-08T11:15:10;31.70;84.10
46608;DHT22;32330;51.936;7.184;2023-09-08T11:17:38;31.80;83.70
46608;DHT22;32330;51.936;7.184;2023-09-08T11:20:08;31.90;83.40
46608;DHT22;32330;51.936;7.184;2023-09-08T11:22:38;31.90;83.50
46608;DHT22;32330;51.936;7.184;2023-09-08T11:25:07;31.80;82.60
46608;DHT22;32330;51.936;7.184;2023-09-08T11:27:37;31.90;83.50
46608;DHT22;32330;51.936;7.184;2023-09-08T11:30:06;32.00;83.10
46608;DHT22;32330;51.936;7.184;2023-09-08T11:32:35;32.20;81.80
46608;DHT22;32330;51.936;7.184;2023-09-08T11:35:04;32.20;82.50
46608;DHT22;32330;51.936;7.184;2023-09-08T11:37:35;32.30;84.00
46608;DHT22;32330;51.936;7.184;2023-09-08T11:40:03;32.30;82.10
46608;DHT22;32330;51.936;7.184;2023-09-08T11:42:40;32.30;83.70
46608;DHT22;32330;51.936;7.184;2023-09-08T11:45:11;32.40;82.20
46608;DHT22;32330;51.936;7.184;2023-09-08T11:47:40;32.50;81.50
46608;DHT22;32330;51.936;7.184;2023-09-08T11:50:09;32.40;81.60
46608;DHT22;32330;51.936;7.184;2023-09-08T11:52:37;32.40;81.90
46608;DHT22;32330;51.936;7.184;2023-09-08T11:55:06;32.50;80.30
46608;DHT22;32330;51.936;7.184;2023-09-08T11:57:34;32.70;81.00
46608;DHT22;32330;51.936;7.184;2023-09-08T12:00:04;32.80;81.30
46608;DHT22;32330;51.936;7.184;2023-09-08T12:02:33;32.80;80.50
46608;DHT22;32330;51.936;7.184;2023-09-08T12:05:00;32.80;79.90
46608;DHT22;32330;51.936;7.184;2023-09-08T12:07:28;32.80;81.90
46608;DHT22;32330;51.936;7.184;2023-09-08T12:09:55;32.80;80.00
46608;DHT22;32330;51.936;7.184;2023-09-08T12:12:28;32.60;79.40
46608;DHT22;32330;51.936;7.184;2023-09-08T12:14:55;32.70;80.60
46608;DHT22;32330;51.936;7.184;2023-09-08T12:17:24;32.80;80.50
46608;DHT22;32330;51.936;7.184;2023-09-08T12:19:52;32.80;81.20
46608;DHT22;32330;51.936;7.184;2023-09-08T12:22:18;32.90;80.10
46608;DHT22;32330;51.936;7.184;2023-09-08T12:24:56;33.10;81.40
46608;DHT22;32330;51.936;7.184;2023-09-08T12:27:24;33.20;81.70
46608;DHT22;32330;51.936;7.184;2023-09-08T12:29:55;33.00;78.70
46608;DHT22;32330;51.936;7.184;2023-09-08T12:32:25;32.80;79.10
46608;DHT22;32330;51.936;7.184;2023-09-08T12:34:52;32.80;78.90
46608;DHT22;32330;51.936;7.184;2023-09-08T12:37:20;32.90;79.00
46608;DHT22;32330;51.936;7.184;2023-09-08T12:39:48;32.90;78.90
46608;DHT22;32330;51.936;7.184;2023-09-08T12:42:18;32.90;79.90
46608;DHT22;32330;51.936;7.184;2023-09-08T12:44:45;33.00;80.00
46608;DHT22;32330;51.936;7.184;2023-09-08T12:47:12;33.20;79.90
46608;DHT22;32330;51.936;7.184;2023-09-08T12:49:40;33.20;80.00
46608;DHT22;32330;51.936;7.184;2023-09-08T12:52:07;33.00;78.80
46608;DHT22;32330;51.936;7.184;2023-09-08T12:54:35;33.10;79.30
46608;DHT22;32330;51.936;7.184;2023-09-08T12:57:02;33.10;78.10
46608;DHT22;32330;51.936;7.184;2023-09-08T12:59:30;33.10;79.30
46608;DHT22;32330;51.936;7.184;2023-09-08T13:01:57;33.20;78.50
46608;DHT22;32330;51.936;7.184;2023-09-08T13:04:24;33.30;77.60
46608;DHT22;32330;51.936;7.184;2023-09-08T13:06:52;33.40;80.10
46608;DHT22;32330;51.936;7.184;2023-09-08T13:09:19;33.40;79.10
46608;DHT22;32330;51.936;7.184;2023-09-08T13:11:47;33.30;79.60
46608;DHT22;32330;51.936;7.184;2023-09-08T13:14:14;33.50;80.40
46608;DHT22;32330;51.936;7.184;2023-09-08T13:16:41;33.40;78.90
46608;DHT22;32330;51.936;7.184;2023-09-08T13:19:08;33.30;79.00
46608;DHT22;32330;51.936;7.184;2023-09-08T13:21:35;33.50;79.20
46608;DHT22;32330;51.936;7.184;2023-09-08T13:24:06;33.50;78.20
46608;DHT22;32330;51.936;7.184;2023-09-08T13:26:33;33.30;77.30
46608;DHT22;32330;51.936;7.184;2023-09-08T13:29:00;33.30;78.40
46608;DHT22;32330;51.936;7.184;2023-09-08T13:31:28;33.50;78.60
46608;DHT22;32330;51.936;7.184;2023-09-08T13:33:55;33.50;77.10
46608;DHT22;32330;51.936;7.184;2023-09-08T13:36:22;33.60;76.70
46608;DHT22;32330;51.936;7.184;2023-09-08T13:38:49;33.30;77.40
46608;DHT22;32330;51.936;7.184;2023-09-08T13:41:18;33.50;77.50
46608;DHT22;32330;51.936;7.184;2023-09-08T13:43:45;33.60;77.00
46608;DHT22;32330;51.936;7.184;2023-09-08T13:46:11;33.60;76.60
46608;DHT22;32330;51.936;7.184;2023-09-08T13:48:39;33.70;76.10
46608;DHT22;32330;51.936;7.184;2023-09-08T13:51:06;33.60;74.60
46608;DHT22;32330;51.936;7.184;2023-09-08T13:53:33;33.50;75.80
46608;DHT22;32330;51.936;7.184;2023-09-08T13:56:01;33.50;75.10
46608;DHT22;32330;51.936;7.184;2023-09-08T13:58:31;33.50;75.90
46608;DHT22;32330;51.936;7.184;2023-09-08T14:00:58;33.70;77.40
46608;DHT22;32330;51.936;7.184;2023-09-08T14:03:25;33.60;75.40
46608;DHT22;32330;51.936;7.184;2023-09-08T14:05:52;33.70;76.20
46608;DHT22;32330;51.936;7.184;2023-09-08T14:08:20;33.70;74.00
46608;DHT22;32330;51.936;7.184;2023-09-08T14:10:47;33.60;75.30
46608;DHT22;32330;51.936;7.184;2023-09-08T14:13:14;33.50;73.60
46608;DHT22;32330;51.936;7.184;2023-09-08T14:15:42;33.60;75.50
46608;DHT22;32330;51.936;7.184;2023-09-08T14:18:11;33.60;73.20
46608;DHT22;32330;51.936;7.184;2023-09-08T14:21:13;33.70;73.90
46608;DHT22;32330;51.936;7.184;2023-09-08T14:23:42;33.90;75.10
46608;DHT22;32330;51.936;7.184;2023-09-08T14:26:09;33.90;72.60
46608;DHT22;32330;51.936;7.184;2023-09-08T14:28:36;34.00;74.10
46608;DHT22;32330;51.936;7.184;2023-09-08T14:31:05;33.90;73.70
46608;DHT22;32330;51.936;7.184;2023-09-08T14:33:32;34.00;73.60
46608;DHT22;32330;51.936;7.184;2023-09-08T14:36:01;33.90;74.20
46608;DHT22;32330;51.936;7.184;2023-09-08T14:38:29;33.90;74.70
46608;DHT22;32330;51.936;7.184;2023-09-08T14:40:57;34.10;73.70
46608;DHT22;32330;51.936;7.184;2023-09-08T14:43:24;34.00;74.80
46608;DHT22;32330;51.936;7.184;2023-09-08T14:45:52;33.90;72.20
46608;DHT22;32330;51.936;7.184;2023-09-08T14:48:20;34.00;71.30
46608;DHT22;32330;51.936;7.184;2023-09-08T14:50:47;34.00;73.40
46608;DHT22;32330;51.936;7.184;2023-09-08T14:53:14;33.90;72.50
46608;DHT22;32330;51.936;7.184;2023-09-08T14:55:42;33.90;71.10
46608;DHT22;32330;51.936;7.184;2023-09-08T14:58:10;33.90;72.80
46608;DHT22;32330;51.936;7.184;2023-09-08T15:00:38;33.70;73.50
46608;DHT22;32330;51.936;7.184;2023-09-08T15:03:05;33.80;72.60
46608;DHT22;32330;51.936;7.184;2023-09-08T15:05:34;34.00;72.40
46608;DHT22;32330;51.936;7.184;2023-09-08T15:08:01;33.90;72.00
46608;DHT22;32330;51.936;7.184;2023-09-08T15:10:28;33.70;71.60
46608;DHT22;32330;51.936;7.184;2023-09-08T15:12:55;33.60;71.10
46608;DHT22;32330;51.936;7.184;2023-09-08T15:15:22;33.50;72.10
46608;DHT22;32330;51.936;7.184;2023-09-08T15:17:51;33.70;72.80
46608;DHT22;32330;51.936;7.184;2023-09-08T15:20:18;33.60;73.40
46608;DHT22;32330;51.936;7.184;2023-09-08T15:22:46;33.70;71.10
46608;DHT22;32330;51.936;7.184;2023-09-08T15:25:13;33.80;73.40
46608;DHT22;32330;51.936;7.184;2023-09-08T15:27:41;33.60;71.70
46608;DHT22;32330;51.936;7.184;2023-09-08T15:30:09;33.50;72.50
46608;DHT22;32330;51.936;7.184;2023-09-08T15:32:37;33.50;73.40
46608;DHT22;32330;51.936;7.184;2023-09-08T15:35:05;33.40;70.90
46608;DHT22;32330;51.936;7.184;2023-09-08T15:37:32;33.30;72.70
46608;DHT22;32330;51.936;7.184;2023-09-08T15:40:01;33.40;72.20
46608;DHT22;32330;51.936;7.184;2023-09-08T15:42:29;33.30;73.20
46608;DHT22;32330;51.936;7.184;2023-09-08T15:44:56;33.30;72.30
46608;DHT22;32330;51.936;7.184;2023-09-08T15:47:23;33.20;72.40
46608;DHT22;32330;51.936;7.184;2023-09-08T15:49:50;33.00;73.60
46608;DHT22;32330;51.936;7.184;2023-09-08T15:52:18;32.90;71.60
46608;DHT22;32330;51.936;7.184;2023-09-08T15:54:44;33.00;71.60
46608;DHT22;32330;51.936;7.184;2023-09-08T15:57:13;33.00;71.50
46608;DHT22;32330;51.936;7.184;2023-09-08T15:59:40;33.00;73.80
46608;DHT22;32330;51.936;7.184;2023-09-08T16:02:07;32.90;72.80
46608;DHT22;32330;51.936;7.184;2023-09-08T16:04:34;32.80;72.00
46608;DHT22;32330;51.936;7.184;2023-09-08T16:07:01;32.60;71.10
46608;DHT22;32330;51.936;7.184;2023-09-08T16:09:28;32.40;71.80
46608;DHT22;32330;51.936;7.184;2023-09-08T16:11:55;32.50;71.80
46608;DHT22;32330;51.936;7.184;2023-09-08T16:14:24;32.40;72.00
46608;DHT22;32330;51.936;7.184;2023-09-08T16:16:54;32.40;72.90
46608;DHT22;32330;51.936;7.184;2023-09-08T16:19:21;32.30;73.00
46608;DHT22;32330;51.936;7.184;2023-09-08T16:21:47;32.30;73.00
46608;DHT22;32330;51.936;7.184;2023-09-08T16:24:14;32.10;72.90
46608;DHT22;32330;51.936;7.184;2023-09-08T16:26:41;32.10;74.40
46608;DHT22;32330;51.936;7.184;2023-09-08T16:29:08;31.90;73.40
46608;DHT22;32330;51.936;7.184;2023-09-08T16:31:37;31.90;73.80
46608;DHT22;32330;51.936;7.184;2023-09-08T16:34:04;31.70;73.90
46608;DHT22;32330;51.936;7.184;2023-09-08T16:36:31;31.70;75.10
46608;DHT22;32330;51.936;7.184;2023-09-08T16:38:58;31.60;75.30
46608;DHT22;32330;51.936;7.184;2023-09-08T16:41:25;31.50;75.60
46608;DHT22;32330;51.936;7.184;2023-09-08T16:43:51;31.40;74.70
46608;DHT22;32330;51.936;7.184;2023-09-08T16:46:19;31.30;76.60
46608;DHT22;32330;51.936;7.184;2023-09-08T16:48:47;31.20;77.00
46608;DHT22;32330;51.936;7.184;2023-09-08T16:51:14;31.10;77.30
46608;DHT22;32330;51.936;7.184;2023-09-08T16:53:41;31.00;77.00
46608;DHT22;32330;51.936;7.184;2023-09-08T16:56:08;30.90;77.50
46608;DHT22;32330;51.936;7.184;2023-09-08T16:58:35;30.80;77.40
46608;DHT22;32330;51.936;7.184;2023-09-08T17:01:03;30.70;77.90
46608;DHT22;32330;51.936;7.184;2023-09-08T17:03:29;30.60;78.70
46608;DHT22;32330;51.936;7.184;2023-09-08T17:05:58;30.50;78.60
46608;DHT22;32330;51.936;7.184;2023-09-08T17:08:26;30.40;79.50
46608;DHT22;32330;51.936;7.184;2023-09-08T17:10:54;30.30;80.20
46608;DHT22;32330;51.936;7.184;2023-09-08T17:13:21;30.20;79.70
46608;DHT22;32330;51.936;7.184;2023-09-08T17:15:49;30.00;80.70
46608;DHT22;32330;51.936;7.184;2023-09-08T17:18:19;30.00;80.50
46608;DHT22;32330;51.936;7.184;2023-09-08T17:21:12;29.80;81.30
46608;DHT22;32330;51.936;7.184;2023-09-08T17:24:11;29.70;80.50
46608;DHT22;32330;51.936;7.184;2023-09-08T17:26:44;29.60;82.30
46608;DHT22;32330;51.936;7.184;2023-09-08T17:29:16;29.50;81.70
46608;DHT22;32330;51.936;7.184;2023-09-08T17:31:48;29.40;82.90
46608;DHT22;32330;51.936;7.184;2023-09-08T17:34:35;29.30;82.50
46608;DHT22;32330;51.936;7.184;2023-09-08T17:37:05;29.00;85.20
46608;DHT22;32330;51.936;7.184;2023-09-08T17:39:35;28.90;87.00
46608;DHT22;32330;51.936;7.184;2023-09-08T17:42:02;28.70;88.00
46608;DHT22;32330;51.936;7.184;2023-09-08T17:44:29;28.60;88.30
46608;DHT22;32330;51.936;7.184;2023-09-08T17:46:56;28.50;88.00
46608;DHT22;32330;51.936;7.184;2023-09-08T17:49:25;28.30;89.30
46608;DHT22;32330;51.936;7.184;2023-09-08T17:51:52;28.20;89.70
46608;DHT22;32330;51.936;7.184;2023-09-08T17:54:20;28.10;90.00
46608;DHT22;32330;51.936;7.184;2023-09-08T17:56:47;28.00;90.30
46608;DHT22;32330;51.936;7.184;2023-09-08T17:59:14;27.80;90.50
46608;DHT22;32330;51.936;7.184;2023-09-08T18:01:41;27.70;90.80
46608;DHT22;32330;51.936;7.184;2023-09-08T18:04:08;27.60;91.10
46608;DHT22;32330;51.936;7.184;2023-09-08T18:06:34;27.50;91.40
46608;DHT22;32330;51.936;7.184;2023-09-08T18:09:02;27.30;91.50
46608;DHT22;32330;51.936;7.184;2023-09-08T18:11:30;27.20;91.80
46608;DHT22;32330;51.936;7.184;2023-09-08T18:13:58;27.10;92.20
46608;DHT22;32330;51.936;7.184;2023-09-08T18:16:25;27.00;92.40
46608;DHT22;32330;51.936;7.184;2023-09-08T18:18:52;26.90;92.40
46608;DHT22;32330;51.936;7.184;2023-09-08T18:21:19;26.80;92.60
46608;DHT22;32330;51.936;7.184;2023-09-08T18:23:46;26.70;92.80
46608;DHT22;32330;51.936;7.184;2023-09-08T18:26:14;26.60;93.10
46608;DHT22;32330;51.936;7.184;2023-09-08T18:28:43;26.40;93.20
46608;DHT22;32330;51.936;7.184;2023-09-08T18:31:10;26.30;93.40
46608;DHT22;32330;51.936;7.184;2023-09-08T18:33:38;26.10;93.60
46608;DHT22;32330;51.936;7.184;2023-09-08T18:36:05;26.00;93.90
46608;DHT22;32330;51.936;7.184;2023-09-08T18:38:32;25.80;94.30
46608;DHT22;32330;51.936;7.184;2023-09-08T18:41:00;25.80;94.40
46608;DHT22;32330;51.936;7.184;2023-09-08T18:43:27;25.70;94.80
46608;DHT22;32330;51.936;7.184;2023-09-08T18:45:55;25.60;95.00
46608;DHT22;32330;51.936;7.184;2023-09-08T18:48:22;25.60;95.30
46608;DHT22;32330;51.936;7.184;2023-09-08T18:50:49;25.40;95.50
46608;DHT22;32330;51.936;7.184;2023-09-08T18:53:16;25.40;95.90
46608;DHT22;32330;51.936;7.184;2023-09-08T18:55:43;25.30;96.20
46608;DHT22;32330;51.936;7.184;2023-09-08T18:58:11;25.10;96.70
46608;DHT22;32330;51.936;7.184;2023-09-08T19:00:42;25.00;96.90
46608;DHT22;32330;51.936;7.184;2023-09-08T19:03:11;25.00;97.00
46608;DHT22;32330;51.936;7.184;2023-09-08T19:05:38;24.90;97.20
46608;DHT22;32330;51.936;7.184;2023-09-08T19:08:06;24.80;97.40
46608;DHT22;32330;51.936;7.184;2023-09-08T19:10:33;24.70;97.80
46608;DHT22;32330;51.936;7.184;2023-09-08T19:13:00;24.60;97.90
46608;DHT22;32330;51.936;7.184;2023-09-08T19:15:28;24.50;98.10
46608;DHT22;32330;51.936;7.184;2023-09-08T19:17:54;24.40;98.30
46608;DHT22;32330;51.936;7.184;2023-09-08T19:20:23;24.30;98.30
46608;DHT22;32330;51.936;7.184;2023-09-08T19:22:50;24.30;98.60
46608;DHT22;32330;51.936;7.184;2023-09-08T19:25:17;24.20;98.70
46608;DHT22;32330;51.936;7.184;2023-09-08T19:27:44;24.20;99.00